createdAt,value
2022-12-23T00:02:09.332Z,2.07
2022-12-23T00:05:12.613Z,2.00
2022-12-23T00:08:14.751Z,1.96
2022-12-23T00:11:20.530Z,1.90
2022-12-23T00:14:41.133Z,1.82
2022-12-23T00:17:45.104Z,1.72
2022-12-23T00:20:47.103Z,1.66
2022-12-23T00:23:51.444Z,1.58
2022-12-23T00:26:53.451Z,1.52
2022-12-23T00:29:55.561Z,1.42
2022-12-23T00:32:57.553Z,1.35
2022-12-23T00:36:00.202Z,1.27
2022-12-23T00:39:20.628Z,1.19
2022-12-23T00:42:41.116Z,1.11
2022-12-23T00:45:43.368Z,1.04
2022-12-23T00:49:04.324Z,0.98
2022-12-23T00:52:08.886Z,0.92
2022-12-23T00:55:10.997Z,0.86
2022-12-23T00:58:13.055Z,0.82
2022-12-23T01:01:33.689Z,0.74
2022-12-23T01:04:54.334Z,0.70
2022-12-23T01:07:56.268Z,0.66
2022-12-23T01:11:03.901Z,0.59
2022-12-23T01:14:06.067Z,0.55
2022-12-23T01:17:08.705Z,0.56
2022-12-23T01:20:11.449Z,0.51
2022-12-23T01:23:13.504Z,0.50
2022-12-23T01:26:15.833Z,0.50
2022-12-23T01:29:17.827Z,0.50
2022-12-23T01:32:20.203Z,0.50
2022-12-23T01:35:22.237Z,0.52
2022-12-23T01:38:24.221Z,0.54
2022-12-23T01:41:47.822Z,0.59
2022-12-23T01:44:56.816Z,0.63
2022-12-23T01:48:10.285Z,0.70
2022-12-23T01:51:23.460Z,0.78
2022-12-23T01:54:25.477Z,0.82
2022-12-23T01:57:29.065Z,0.90
2022-12-23T02:00:49.770Z,0.94
2022-12-23T02:03:56.243Z,1.00
2022-12-23T02:07:16.958Z,1.07
2022-12-23T02:10:19.005Z,1.08
2022-12-23T02:13:37.027Z,1.13
2022-12-23T02:16:47.775Z,1.19
2022-12-23T02:20:05.966Z,1.25
2022-12-23T02:23:45.513Z,1.30
2022-12-23T02:26:59.739Z,1.31
2022-12-23T02:30:20.124Z,1.34
2022-12-23T02:33:54.395Z,1.39
2022-12-23T02:37:08.641Z,1.45
2022-12-23T02:40:35.470Z,1.51
2022-12-23T02:44:30.336Z,1.56
2022-12-23T02:47:48.295Z,1.63
2022-12-23T02:50:53.651Z,1.64
2022-12-23T02:53:59.822Z,1.68
2022-12-23T02:57:05.957Z,1.68
2022-12-23T03:00:08.681Z,1.68
2022-12-23T03:03:10.945Z,1.68
2022-12-23T03:06:23.949Z,1.70
2022-12-23T03:10:00.419Z,1.74
2022-12-23T03:13:05.329Z,1.73
2022-12-23T03:16:30.243Z,1.75
2022-12-23T03:19:44.797Z,1.76
2022-12-23T03:23:00.271Z,1.76
2022-12-23T03:26:14.484Z,1.77
2022-12-23T03:29:24.739Z,1.79
2022-12-23T03:32:31.507Z,1.81
2022-12-23T03:35:41.191Z,1.86
2022-12-23T03:38:45.304Z,1.90
2022-12-23T03:42:05.008Z,1.99
2022-12-23T03:45:38.219Z,2.03
2022-12-23T03:48:46.488Z,2.05
2022-12-23T03:52:01.132Z,2.14
2022-12-23T03:55:07.624Z,2.17
2022-12-23T03:58:23.120Z,2.17
2022-12-23T04:01:49.770Z,2.19
2022-12-23T04:05:08.426Z,2.18
2022-12-23T04:08:31.435Z,2.25
2022-12-23T04:11:35.641Z,2.30
2022-12-23T04:14:39.123Z,2.34
2022-12-23T04:17:41.116Z,2.38
2022-12-23T04:20:43.164Z,2.36
2022-12-23T04:23:45.225Z,2.37
2022-12-23T04:26:47.292Z,2.39
2022-12-23T04:29:49.377Z,2.38
2022-12-23T04:32:51.489Z,2.36
2022-12-23T04:35:53.505Z,2.40
2022-12-23T04:38:55.595Z,2.46
2022-12-23T04:41:57.648Z,2.44
2022-12-23T04:44:59.816Z,2.47
2022-12-23T04:48:01.871Z,2.46
2022-12-23T04:51:04.206Z,2.49
2022-12-23T04:54:06.223Z,2.63
2022-12-23T04:57:08.231Z,2.66
2022-12-23T05:00:10.901Z,2.65
2022-12-23T05:03:13.089Z,2.70
2022-12-23T05:06:15.276Z,2.71
2022-12-23T05:09:17.320Z,2.69
2022-12-23T05:12:19.505Z,2.69
2022-12-23T05:15:21.544Z,2.73
2022-12-23T05:18:23.661Z,2.78
2022-12-23T05:21:25.871Z,2.75
2022-12-23T05:24:27.948Z,2.73
2022-12-23T05:27:29.952Z,2.73
2022-12-23T05:30:32.330Z,2.73
2022-12-23T05:33:35.907Z,2.71
2022-12-23T05:36:38.040Z,2.65
2022-12-23T05:39:40.077Z,2.68
2022-12-23T05:42:42.309Z,2.67
2022-12-23T05:45:45.057Z,2.66
2022-12-23T05:48:47.227Z,2.68
2022-12-23T05:51:49.229Z,2.73
2022-12-23T05:54:51.804Z,2.77
2022-12-23T05:57:54.528Z,2.86
2022-12-23T06:00:56.590Z,2.86
2022-12-23T06:03:58.712Z,2.95
2022-12-23T06:07:00.948Z,3.01
2022-12-23T06:10:03.109Z,2.99
2022-12-23T06:13:05.166Z,2.94
2022-12-23T06:16:07.448Z,2.93
2022-12-23T06:19:09.587Z,2.90
2022-12-23T06:22:11.605Z,2.84
2022-12-23T06:25:13.690Z,2.79
2022-12-23T06:28:15.774Z,2.74
2022-12-23T06:31:17.935Z,2.69
2022-12-23T06:34:20.077Z,2.69
2022-12-23T06:37:22.098Z,2.66
2022-12-23T06:40:24.103Z,2.63
2022-12-23T06:43:26.164Z,2.61
2022-12-23T06:46:28.584Z,2.62
2022-12-23T06:49:30.729Z,2.59
2022-12-23T06:52:32.713Z,2.56
2022-12-23T06:55:34.826Z,2.54
2022-12-23T06:58:36.878Z,2.54
2022-12-23T07:01:39.263Z,2.52
2022-12-23T07:04:41.412Z,2.51
2022-12-23T07:07:43.579Z,2.52
2022-12-23T07:10:45.786Z,2.54
2022-12-23T07:13:47.845Z,2.54
2022-12-23T07:16:50.131Z,2.54
2022-12-23T07:19:52.195Z,2.55
2022-12-23T07:22:55.501Z,2.55
2022-12-23T07:25:57.851Z,2.58
2022-12-23T07:28:59.930Z,2.61
2022-12-23T07:32:02.748Z,2.66
2022-12-23T07:35:05.335Z,2.73
2022-12-23T07:38:07.287Z,2.78
2022-12-23T07:41:09.357Z,2.85
2022-12-23T07:44:11.432Z,2.91
2022-12-23T07:47:13.530Z,2.99
2022-12-23T07:50:15.628Z,3.08
2022-12-23T07:53:17.615Z,3.14
2022-12-23T07:56:19.821Z,3.22
2022-12-23T07:59:22.029Z,3.32
2022-12-23T08:02:25.609Z,3.42
2022-12-23T08:05:27.910Z,3.55
2022-12-23T08:08:30.886Z,3.64
2022-12-23T08:11:32.896Z,3.71
2022-12-23T08:14:34.919Z,3.79
2022-12-23T08:17:36.967Z,3.86
2022-12-23T08:20:39.074Z,3.90
2022-12-23T08:23:43.676Z,3.94
2022-12-23T08:26:45.795Z,3.96
2022-12-23T08:29:47.813Z,3.99
2022-12-23T08:32:49.995Z,-144.22
2022-12-23T08:35:55.068Z,-144.22
2022-12-23T08:38:59.418Z,-144.22
2022-12-23T08:42:01.555Z,-144.22
2022-12-23T08:45:03.988Z,-144.22
2022-12-23T08:48:07.057Z,-144.22
2022-12-23T08:51:12.798Z,-144.22
2022-12-23T08:54:14.938Z,-144.22
2022-12-23T08:57:16.996Z,-144.22
2022-12-23T09:00:19.147Z,-144.22
2022-12-23T09:03:21.232Z,-144.22
2022-12-23T09:06:29.583Z,-144.22
2022-12-23T09:09:32.231Z,-144.22
2022-12-23T09:12:34.286Z,-144.22
2022-12-23T09:15:39.034Z,-144.22
2022-12-23T09:18:42.182Z,-144.22
2022-12-23T09:21:44.189Z,-144.22
2022-12-23T09:24:46.209Z,-144.22
2022-12-23T09:27:48.285Z,-144.22
2022-12-23T09:30:50.470Z,-144.22
2022-12-23T09:33:53.812Z,-144.22
2022-12-23T09:36:55.953Z,-144.22
2022-12-23T09:39:58.210Z,-144.22
2022-12-23T09:43:23.587Z,-144.22
2022-12-23T09:46:30.188Z,-144.22
2022-12-23T09:49:33.180Z,-144.22
2022-12-23T09:52:47.869Z,-144.22
2022-12-23T09:56:14.312Z,-144.22
2022-12-23T09:59:31.829Z,-144.22
2022-12-23T10:02:58.862Z,-144.22
2022-12-23T10:06:25.586Z,-144.22
2022-12-23T10:09:29.052Z,-144.22
2022-12-23T10:12:44.471Z,-144.22
2022-12-23T10:15:49.711Z,-144.22
2022-12-23T10:19:01.280Z,-144.22
2022-12-23T10:22:06.418Z,-144.22
2022-12-23T10:25:20.639Z,-144.22
2022-12-23T10:28:23.314Z,-144.22
2022-12-23T10:32:04.238Z,-144.22
2022-12-23T10:35:36.764Z,-144.22
2022-12-23T10:39:01.535Z,-144.22
2022-12-23T10:42:29.883Z,-144.22
2022-12-23T10:45:37.885Z,-144.22
2022-12-23T10:49:00.607Z,-144.22
2022-12-23T10:52:22.497Z,-144.22
2022-12-23T10:55:33.540Z,-144.22
2022-12-23T10:58:41.056Z,-144.22
2022-12-23T11:01:48.982Z,-144.22
2022-12-23T11:04:51.160Z,-144.22
2022-12-23T11:07:54.895Z,-144.22
2022-12-23T11:10:59.544Z,-144.22
2022-12-23T11:14:01.580Z,-144.22
2022-12-23T11:17:05.185Z,-144.22
2022-12-23T11:20:19.949Z,-144.22
2022-12-23T11:23:28.213Z,-144.22
2022-12-23T11:26:30.372Z,-144.22
2022-12-23T11:29:36.036Z,-144.22
2022-12-23T11:32:38.931Z,-144.22
2022-12-23T11:35:41.144Z,-144.22
2022-12-23T11:39:03.147Z,-144.22
2022-12-23T11:42:15.960Z,-144.22
2022-12-23T11:45:23.853Z,-144.22
2022-12-23T11:48:31.176Z,-144.22
2022-12-23T11:51:33.370Z,-144.22
2022-12-23T11:54:35.483Z,-144.22
2022-12-23T11:57:45.102Z,-144.22
2022-12-23T12:00:56.496Z,-144.22
2022-12-23T12:04:03.420Z,-144.22
2022-12-23T12:07:07.109Z,-144.22
2022-12-23T12:10:18.423Z,-144.22
2022-12-23T12:13:29.075Z,-144.22
2022-12-23T12:16:31.112Z,-144.22
2022-12-23T12:19:59.334Z,-144.22
2022-12-23T12:23:07.191Z,-144.22
2022-12-23T12:26:22.427Z,-144.22
2022-12-23T12:29:43.834Z,-144.22
2022-12-23T12:33:21.310Z,-144.22
2022-12-23T12:36:30.686Z,-144.22
2022-12-23T12:39:46.017Z,-144.22
2022-12-23T12:43:05.144Z,-144.22
2022-12-23T12:46:22.424Z,-144.22
2022-12-23T12:49:45.474Z,4.05
2022-12-23T12:52:47.967Z,11.91
2022-12-23T12:55:56.998Z,11.91
2022-12-23T12:58:59.270Z,-144.22
2022-12-23T13:02:38.790Z,-144.22
2022-12-23T13:06:05.528Z,-144.22
2022-12-23T13:09:49.122Z,-144.22
2022-12-23T13:13:21.279Z,-144.22
2022-12-23T13:16:32.271Z,11.91
2022-12-23T13:20:00.507Z,11.91
2022-12-23T13:23:44.017Z,11.19
2022-12-23T13:27:03.367Z,11.19
2022-12-23T13:30:07.298Z,11.19
2022-12-23T13:33:24.539Z,10.81
2022-12-23T13:36:35.036Z,10.81
2022-12-23T13:39:46.254Z,10.81
2022-12-23T13:42:57.465Z,10.81
2022-12-23T13:46:07.866Z,10.81
2022-12-23T13:49:19.304Z,-144.22
2022-12-23T13:52:44.404Z,10.66
2022-12-23T13:56:03.619Z,-144.22
2022-12-23T13:59:11.381Z,-144.22
2022-12-23T14:02:35.444Z,-144.22
2022-12-23T14:05:47.095Z,-144.22
2022-12-23T14:08:52.051Z,-144.22
2022-12-23T14:12:00.996Z,-144.22
2022-12-23T14:15:21.314Z,-144.22
2022-12-23T14:18:31.197Z,-144.22
2022-12-23T14:21:59.733Z,-144.22
2022-12-23T14:25:43.535Z,-144.22
2022-12-23T14:28:51.829Z,-144.22
2022-12-23T14:31:57.250Z,-144.22
2022-12-23T14:35:24.020Z,-144.22
2022-12-23T14:38:32.173Z,-144.22
2022-12-23T14:41:38.996Z,-144.22
2022-12-23T14:44:41.196Z,-144.22
2022-12-23T14:47:46.606Z,-144.22
2022-12-23T14:51:02.648Z,-144.22
2022-12-23T14:54:11.074Z,-144.22
2022-12-23T14:57:22.656Z,-144.22
2022-12-23T15:00:24.808Z,-144.22
2022-12-23T15:03:31.915Z,-144.22
2022-12-23T15:06:39.876Z,-144.22
2022-12-23T15:10:00.336Z,-144.22
2022-12-23T15:13:03.324Z,-144.22
2022-12-23T15:16:05.553Z,-144.22
2022-12-23T15:19:21.149Z,-144.22
2022-12-23T15:22:30.405Z,-144.22
2022-12-23T15:25:39.527Z,-144.22
2022-12-23T15:28:42.407Z,-144.22
2022-12-23T15:31:49.561Z,-144.22
2022-12-23T15:34:53.040Z,-144.22
2022-12-23T15:37:56.371Z,-144.22
2022-12-23T15:41:01.699Z,-144.22
2022-12-23T15:44:03.946Z,-144.22
2022-12-23T15:47:25.970Z,-144.22
2022-12-23T15:50:29.230Z,-144.22
2022-12-23T15:53:38.858Z,-144.22
2022-12-23T15:56:42.130Z,-144.22
2022-12-23T15:59:44.174Z,-144.22
2022-12-23T16:03:04.017Z,-144.22
2022-12-23T16:06:17.907Z,-144.22
2022-12-23T16:09:19.867Z,-144.22
2022-12-23T16:12:27.553Z,-144.22
2022-12-23T16:15:32.772Z,-144.22
2022-12-23T16:18:46.895Z,-144.22
2022-12-23T16:21:49.851Z,-144.22
2022-12-23T16:25:03.564Z,-144.22
2022-12-23T16:28:24.660Z,-144.22
2022-12-23T16:31:26.897Z,-144.22
2022-12-23T16:34:32.117Z,-144.22
2022-12-23T16:37:34.190Z,-144.22
2022-12-23T16:40:36.549Z,-144.22
2022-12-23T16:43:39.183Z,-144.22
2022-12-23T16:46:44.961Z,-144.22
2022-12-23T16:49:47.123Z,-144.22
2022-12-23T16:52:49.219Z,-144.22
2022-12-23T16:55:56.649Z,-144.22
2022-12-23T16:59:00.498Z,-144.22
2022-12-23T17:02:03.941Z,-144.22
2022-12-23T17:05:08.043Z,-144.22
2022-12-23T17:08:10.563Z,-144.22
2022-12-23T17:11:26.753Z,-144.22
2022-12-23T17:14:28.844Z,-144.22
2022-12-23T17:17:30.931Z,-144.22
2022-12-23T17:20:32.948Z,-144.22
2022-12-23T17:23:34.909Z,-144.22
2022-12-23T17:26:37.490Z,-144.22
2022-12-23T17:29:39.516Z,-144.22
2022-12-23T17:32:41.849Z,-144.22
2022-12-23T17:35:43.888Z,-144.22
2022-12-23T17:38:45.851Z,-144.22
2022-12-23T17:41:48.676Z,-144.22
2022-12-23T17:44:52.080Z,-144.22
2022-12-23T17:47:54.140Z,-144.22
2022-12-23T17:50:56.225Z,-144.22
2022-12-23T17:53:59.462Z,-144.22
2022-12-23T17:57:01.820Z,-144.22
2022-12-23T18:00:04.441Z,-144.22
2022-12-23T18:03:31.612Z,-144.22
2022-12-23T18:06:34.026Z,-144.22
2022-12-23T18:09:36.118Z,-144.22
2022-12-23T18:12:40.605Z,-144.22
2022-12-23T18:15:44.419Z,-144.22
2022-12-23T18:18:47.159Z,-144.22
2022-12-23T18:21:50.722Z,-144.22
2022-12-23T18:24:58.872Z,-144.22
2022-12-23T18:28:01.576Z,-144.22
2022-12-23T18:31:03.775Z,-144.22
2022-12-23T18:34:05.923Z,-144.22
2022-12-23T18:37:09.265Z,-144.22
2022-12-23T18:40:11.696Z,-144.22
2022-12-23T18:43:25.135Z,-144.22
2022-12-23T18:46:27.231Z,-144.22
2022-12-23T18:49:29.262Z,-144.22
2022-12-23T18:52:31.391Z,-144.22
2022-12-23T18:55:33.931Z,-144.22
2022-12-23T18:58:35.936Z,-144.22
2022-12-23T19:01:38.201Z,-144.22
2022-12-23T19:04:40.234Z,-144.22
2022-12-23T19:07:42.771Z,-144.22
2022-12-23T19:10:47.049Z,-144.22
2022-12-23T19:13:49.031Z,-144.22
2022-12-23T19:16:52.550Z,-144.22
2022-12-23T19:19:54.947Z,-144.22
2022-12-23T19:22:56.951Z,-144.22
2022-12-23T19:25:59.023Z,-144.22
2022-12-23T19:29:01.196Z,-144.22
2022-12-23T19:32:03.308Z,-144.22
2022-12-23T19:35:06.075Z,-144.22
2022-12-23T19:38:08.505Z,-144.22
2022-12-23T19:41:11.085Z,-144.22
2022-12-23T19:44:13.788Z,-144.22
2022-12-23T19:47:16.001Z,-144.22
2022-12-23T19:50:19.989Z,-144.22
2022-12-23T19:53:22.259Z,-144.22
2022-12-23T19:56:25.304Z,-144.22
2022-12-23T19:59:27.762Z,-144.22
2022-12-23T20:02:31.007Z,-144.22
2022-12-23T20:05:33.191Z,-144.22
2022-12-23T20:08:35.648Z,-144.22
2022-12-23T20:11:41.126Z,-144.22
2022-12-23T20:14:43.436Z,-144.22
2022-12-23T20:17:45.456Z,-144.22
2022-12-23T20:20:47.960Z,-144.22
2022-12-23T20:23:50.626Z,-144.22
2022-12-23T20:26:52.851Z,-144.22
2022-12-23T20:29:55.277Z,-144.22
2022-12-23T20:32:58.888Z,-144.22
2022-12-23T20:36:01.060Z,-144.22
2022-12-23T20:39:04.770Z,-144.22
2022-12-23T20:42:07.096Z,-144.22
2022-12-23T20:45:09.711Z,-144.22
2022-12-23T20:48:11.737Z,-144.22
2022-12-23T20:51:26.109Z,-144.22
2022-12-23T20:54:33.271Z,-144.22
2022-12-23T20:57:36.133Z,-144.22
2022-12-23T21:00:38.143Z,-144.22
2022-12-23T21:03:40.958Z,-144.22
2022-12-23T21:06:43.632Z,-144.22
2022-12-23T21:09:45.784Z,-144.22
2022-12-23T21:12:47.792Z,-144.22
2022-12-23T21:15:50.044Z,-144.22
2022-12-23T21:18:53.466Z,-144.22
2022-12-23T21:21:55.697Z,-144.22
2022-12-23T21:24:57.739Z,-144.22
2022-12-23T21:27:59.740Z,-144.22
2022-12-23T21:31:01.955Z,-144.22
2022-12-23T21:34:04.862Z,-144.22
2022-12-23T21:37:06.893Z,-144.22
2022-12-23T21:40:09.620Z,-144.22
2022-12-23T21:43:11.665Z,-144.22
2022-12-23T21:46:16.335Z,-144.22
2022-12-23T21:49:19.599Z,-144.22
2022-12-23T21:52:21.684Z,-144.22
2022-12-23T21:55:23.729Z,-144.22
2022-12-23T21:58:25.791Z,-144.22
2022-12-23T22:01:28.528Z,-144.22
2022-12-23T22:04:30.609Z,-144.22
2022-12-23T22:07:32.640Z,-144.22
2022-12-23T22:10:38.727Z,-144.22
2022-12-23T22:13:41.477Z,-144.22
2022-12-23T22:16:44.189Z,-144.22
2022-12-23T22:19:46.278Z,-144.22
2022-12-23T22:22:48.949Z,-144.22
2022-12-23T22:25:55.317Z,-144.22
2022-12-23T22:29:00.429Z,-144.22
2022-12-23T22:32:02.558Z,-144.22
2022-12-23T22:35:05.031Z,-144.22
2022-12-23T22:38:08.111Z,-144.22
2022-12-23T22:41:10.904Z,-144.22
2022-12-23T22:44:16.885Z,-144.22
2022-12-23T22:47:19.172Z,-144.22
2022-12-23T22:50:21.268Z,-144.22
2022-12-23T22:53:29.350Z,-144.22
2022-12-23T22:56:31.849Z,-144.22
2022-12-23T22:59:33.933Z,-144.22
2022-12-23T23:02:36.016Z,-144.22
2022-12-23T23:05:38.184Z,-144.22
2022-12-23T23:08:42.160Z,-144.22
2022-12-23T23:11:44.867Z,-144.22
2022-12-23T23:14:53.036Z,-144.22
2022-12-23T23:17:56.615Z,-144.22
2022-12-23T23:20:58.721Z,-144.22
2022-12-23T23:24:00.717Z,-144.22
2022-12-23T23:27:02.760Z,-144.22
2022-12-23T23:30:05.330Z,-144.22
2022-12-23T23:33:08.894Z,-144.22
2022-12-23T23:36:11.239Z,-144.22
2022-12-23T23:39:13.538Z,-144.22
2022-12-23T23:42:17.071Z,-144.22
2022-12-23T23:45:19.118Z,-144.22
2022-12-23T23:48:21.739Z,-144.22
2022-12-23T23:51:23.805Z,-144.22
2022-12-23T23:54:26.031Z,-144.22
2022-12-23T23:57:28.305Z,-144.22
